createdAt,value
2022-11-01T00:01:43.391Z,78.20
2022-11-01T00:04:12.465Z,61.00
2022-11-01T00:06:40.288Z,57.20
2022-11-01T00:09:08.667Z,56.90
2022-11-01T00:11:36.742Z,56.20
2022-11-01T00:14:05.133Z,63.50
2022-11-01T00:16:33.012Z,59.40
2022-11-01T00:19:00.645Z,68.50
2022-11-01T00:21:28.508Z,62.50
2022-11-01T00:23:56.272Z,60.00
2022-11-01T00:26:24.661Z,61.00
2022-11-01T00:28:52.824Z,67.50
2022-11-01T00:31:21.509Z,69.30
2022-11-01T00:33:49.122Z,59.40
2022-11-01T00:36:17.062Z,58.30
2022-11-01T00:38:45.313Z,55.20
2022-11-01T00:41:15.745Z,50.70
2022-11-01T00:43:43.619Z,46.00
2022-11-01T00:46:11.675Z,43.10
2022-11-01T00:48:39.850Z,39.90
2022-11-01T00:51:07.823Z,44.10
2022-11-01T00:53:35.676Z,41.00
2022-11-01T00:56:04.755Z,42.20
2022-11-01T00:58:32.752Z,41.20
2022-11-01T01:01:00.456Z,41.60
2022-11-01T01:03:28.998Z,39.20
2022-11-01T01:05:57.271Z,40.00
2022-11-01T01:08:25.643Z,61.70
2022-11-01T01:10:53.820Z,50.50
2022-11-01T01:13:21.872Z,50.20
2022-11-01T01:15:49.514Z,56.00
2022-11-01T01:18:17.470Z,66.80
2022-11-01T01:20:45.389Z,47.50
2022-11-01T01:23:13.047Z,45.80
2022-11-01T01:25:41.732Z,44.00
2022-11-01T01:28:10.267Z,38.20
2022-11-01T01:30:41.879Z,35.10
2022-11-01T01:33:10.243Z,30.70
2022-11-01T01:35:39.137Z,54.80
2022-11-01T01:38:07.216Z,68.50
2022-11-01T01:40:35.386Z,75.10
2022-11-01T01:43:03.554Z,64.20
2022-11-01T01:45:33.466Z,173.70
2022-11-01T01:48:10.237Z,106.50
2022-11-01T01:50:57.343Z,115.70
2022-11-01T01:53:28.809Z,141.30
2022-11-01T01:56:00.777Z,263.70
2022-11-01T01:58:30.754Z,200.90
2022-11-01T02:00:59.501Z,254.90
2022-11-01T02:03:30.204Z,166.60
2022-11-01T02:06:14.399Z,164.90
2022-11-01T02:08:44.471Z,153.20
2022-11-01T02:11:13.672Z,146.50
2022-11-01T02:13:41.253Z,88.20
2022-11-01T02:16:09.100Z,46.20
2022-11-01T02:18:52.216Z,43.70
2022-11-01T02:21:36.351Z,41.10
2022-11-01T02:24:07.480Z,46.20
2022-11-01T02:26:54.227Z,44.80
2022-11-01T02:29:29.147Z,43.80
2022-11-01T02:32:00.264Z,69.60
2022-11-01T02:34:35.440Z,56.10
2022-11-01T02:37:21.520Z,161.10
2022-11-01T02:39:52.154Z,124.00
2022-11-01T02:42:22.002Z,135.90
2022-11-01T02:44:53.947Z,116.40
2022-11-01T02:47:23.735Z,106.00
2022-11-01T02:49:52.731Z,76.70
2022-11-01T02:52:25.054Z,54.90
2022-11-01T02:54:56.227Z,66.30
2022-11-01T02:57:24.109Z,57.60
2022-11-01T02:59:51.974Z,58.00
2022-11-01T03:02:41.959Z,54.00
2022-11-01T03:05:17.062Z,85.80
2022-11-01T03:07:47.849Z,86.50
2022-11-01T03:10:16.108Z,67.30
2022-11-01T03:12:52.473Z,75.60
2022-11-01T03:15:26.185Z,80.60
2022-11-01T03:18:01.800Z,68.30
2022-11-01T03:20:47.506Z,68.90
2022-11-01T03:23:22.027Z,59.50
2022-11-01T03:25:54.911Z,56.60
2022-11-01T03:28:28.948Z,51.00
2022-11-01T03:31:03.802Z,47.90
2022-11-01T03:33:33.768Z,50.30
2022-11-01T03:36:11.954Z,48.00
2022-11-01T03:38:44.044Z,49.40
2022-11-01T03:41:13.869Z,53.90
2022-11-01T03:43:41.965Z,49.90
2022-11-01T03:46:09.904Z,48.80
2022-11-01T03:48:41.025Z,88.30
2022-11-01T03:51:09.492Z,72.30
2022-11-01T03:53:37.186Z,64.40
2022-11-01T03:56:05.154Z,63.30
2022-11-01T03:58:41.986Z,55.20
2022-11-01T04:01:10.959Z,62.70
2022-11-01T04:03:39.085Z,56.70
2022-11-01T04:06:07.258Z,63.90
2022-11-01T04:08:35.231Z,54.40
2022-11-01T04:11:03.510Z,76.30
2022-11-01T04:13:31.474Z,66.30
2022-11-01T04:16:17.823Z,131.10
2022-11-01T04:19:04.885Z,77.20
2022-11-01T04:21:33.163Z,74.30
2022-11-01T04:24:00.768Z,60.20
2022-11-01T04:26:28.587Z,67.20
2022-11-01T04:28:58.853Z,59.80
2022-11-01T04:31:31.283Z,70.20
2022-11-01T04:33:59.443Z,79.50
2022-11-01T04:36:27.832Z,63.70
2022-11-01T04:38:56.521Z,63.80
2022-11-01T04:41:25.309Z,65.60
2022-11-01T04:43:54.400Z,92.50
2022-11-01T04:46:22.472Z,136.60
2022-11-01T04:48:50.729Z,103.10
2022-11-01T04:51:18.616Z,115.40
2022-11-01T04:53:46.277Z,79.20
2022-11-01T04:56:14.151Z,108.30
2022-11-01T04:58:45.965Z,77.80
2022-11-01T05:01:15.232Z,100.40
2022-11-01T05:03:43.325Z,90.60
2022-11-01T05:06:11.180Z,87.70
2022-11-01T05:08:40.390Z,297.00
2022-11-01T05:11:08.082Z,213.60
2022-11-01T05:13:36.152Z,177.70
2022-11-01T05:16:18.891Z,158.50
2022-11-01T05:18:48.384Z,135.40
2022-11-01T05:21:16.311Z,109.50
2022-11-01T05:23:44.223Z,99.40
2022-11-01T05:26:11.786Z,106.00
2022-11-01T05:28:40.387Z,155.70
2022-11-01T05:31:08.229Z,101.60
2022-11-01T05:33:35.991Z,92.20
2022-11-01T05:36:03.765Z,101.30
2022-11-01T05:38:31.621Z,88.80
2022-11-01T05:41:01.673Z,107.70
2022-11-01T05:43:30.414Z,70.10
2022-11-01T05:45:58.600Z,117.20
2022-11-01T05:48:26.362Z,103.00
2022-11-01T05:50:54.538Z,120.90
2022-11-01T05:53:22.400Z,206.00
2022-11-01T05:55:50.047Z,168.90
2022-11-01T05:58:18.338Z,157.30
2022-11-01T06:00:46.081Z,82.60
2022-11-01T06:03:13.764Z,112.00
2022-11-01T06:05:41.622Z,92.00
2022-11-01T06:08:09.391Z,89.90
2022-11-01T06:10:37.157Z,79.30
2022-11-01T06:13:05.228Z,88.80
2022-11-01T06:15:35.791Z,97.60
2022-11-01T06:18:07.112Z,86.10
2022-11-01T06:20:37.023Z,83.80
2022-11-01T06:23:11.553Z,94.10
2022-11-01T06:25:39.215Z,78.30
2022-11-01T06:28:07.187Z,79.80
2022-11-01T06:30:37.714Z,76.00
2022-11-01T06:33:09.489Z,98.50
2022-11-01T06:35:37.562Z,79.70
2022-11-01T06:38:06.925Z,127.00
2022-11-01T06:40:35.208Z,95.90
2022-11-01T06:43:04.770Z,106.20
2022-11-01T06:45:33.360Z,79.30
2022-11-01T06:48:01.357Z,79.20
2022-11-01T06:50:29.845Z,80.50
2022-11-01T06:52:58.732Z,66.20
2022-11-01T06:55:27.526Z,68.00
2022-11-01T06:57:57.840Z,68.60
2022-11-01T07:00:26.732Z,57.40
2022-11-01T07:02:58.390Z,76.10
2022-11-01T07:05:26.355Z,65.90
2022-11-01T07:07:55.043Z,65.40
2022-11-01T07:10:23.524Z,61.40
2022-11-01T07:12:51.286Z,59.30
2022-11-01T07:15:19.273Z,61.50
2022-11-01T07:17:48.185Z,62.50
2022-11-01T07:20:15.908Z,56.60
2022-11-01T07:22:43.569Z,63.70
2022-11-01T07:25:11.540Z,56.90
2022-11-01T07:27:39.302Z,56.70
2022-11-01T07:30:07.696Z,60.20
2022-11-01T07:32:39.029Z,63.60
2022-11-01T07:35:08.531Z,79.70
2022-11-01T07:37:36.397Z,57.10
2022-11-01T07:40:04.784Z,58.40
2022-11-01T07:42:32.400Z,61.00
2022-11-01T07:45:00.112Z,54.60
2022-11-01T07:47:27.867Z,52.70
2022-11-01T07:49:55.700Z,64.00
2022-11-01T07:52:23.319Z,61.30
2022-11-01T07:54:51.161Z,58.90
2022-11-01T07:57:19.537Z,63.50
2022-11-01T07:59:48.088Z,70.70
2022-11-01T08:02:16.733Z,132.70
2022-11-01T08:04:44.972Z,121.00
2022-11-01T08:07:13.769Z,52.30
2022-11-01T08:09:44.293Z,50.80
2022-11-01T08:12:11.970Z,57.30
2022-11-01T08:14:40.028Z,46.80
2022-11-01T08:17:09.016Z,47.60
2022-11-01T08:19:36.986Z,48.50
2022-11-01T08:22:05.770Z,44.30
2022-11-01T08:24:33.614Z,43.90
2022-11-01T08:27:03.651Z,45.50
2022-11-01T08:29:31.725Z,43.80
2022-11-01T08:32:00.114Z,43.80
2022-11-01T08:34:30.904Z,46.90
2022-11-01T08:36:58.904Z,43.50
2022-11-01T08:39:26.679Z,41.20
2022-11-01T08:41:55.449Z,44.30
2022-11-01T08:44:23.533Z,40.80
2022-11-01T08:46:55.417Z,43.50
2022-11-01T08:49:24.045Z,44.50
2022-11-01T08:51:52.247Z,43.50
2022-11-01T08:54:20.023Z,41.10
2022-11-01T08:56:48.185Z,43.10
2022-11-01T08:59:16.531Z,34.10
2022-11-01T09:01:45.121Z,40.30
2022-11-01T09:04:14.238Z,40.00
2022-11-01T09:06:42.205Z,40.00
2022-11-01T09:09:12.864Z,40.90
2022-11-01T09:11:40.762Z,35.90
2022-11-01T09:14:09.184Z,39.90
2022-11-01T09:16:37.153Z,39.50
2022-11-01T09:19:04.889Z,39.10
2022-11-01T09:21:35.247Z,40.00
2022-11-01T09:24:03.005Z,38.70
2022-11-01T09:26:30.971Z,37.40
2022-11-01T09:28:58.836Z,34.40
2022-11-01T09:31:26.465Z,30.50
2022-11-01T09:33:55.387Z,31.00
2022-11-01T09:36:24.285Z,31.10
2022-11-01T09:38:52.351Z,30.00
2022-11-01T09:41:34.657Z,31.30
2022-11-01T09:44:04.883Z,33.20
2022-11-01T09:46:46.467Z,32.40
2022-11-01T09:49:19.247Z,34.60
2022-11-01T09:51:47.323Z,34.80
2022-11-01T09:54:17.391Z,34.30
2022-11-01T09:57:06.397Z,33.00
2022-11-01T09:59:41.530Z,35.00
2022-11-01T10:02:22.157Z,34.10
2022-11-01T10:05:09.738Z,38.10
2022-11-01T10:07:45.785Z,34.90
2022-11-01T10:10:17.134Z,35.10
2022-11-01T10:13:07.937Z,34.90
2022-11-01T10:15:54.441Z,34.60
2022-11-01T10:18:22.414Z,35.20
2022-11-01T10:20:50.172Z,33.10
2022-11-01T10:23:22.283Z,35.10
2022-11-01T10:25:53.100Z,34.50
2022-11-01T10:28:25.934Z,34.50
2022-11-01T10:31:02.968Z,33.30
2022-11-01T10:33:33.988Z,33.40
2022-11-01T10:36:07.242Z,32.00
2022-11-01T10:38:59.552Z,30.00
2022-11-01T10:41:29.221Z,29.60
2022-11-01T10:43:58.817Z,29.40
2022-11-01T10:46:33.034Z,29.30
2022-11-01T10:49:03.358Z,25.40
2022-11-01T10:51:34.917Z,32.10
2022-11-01T10:54:04.840Z,30.10
2022-11-01T10:56:45.212Z,30.90
2022-11-01T10:59:25.950Z,29.40
2022-11-01T11:01:55.134Z,33.40
2022-11-01T11:04:24.857Z,31.70
2022-11-01T11:06:53.237Z,30.70
2022-11-01T11:09:21.105Z,32.90
2022-11-01T11:11:50.400Z,31.70
2022-11-01T11:14:21.143Z,29.70
2022-11-01T11:16:51.874Z,30.80
2022-11-01T11:19:21.547Z,33.20
2022-11-01T11:21:52.668Z,32.70
2022-11-01T11:24:23.310Z,35.00
2022-11-01T11:26:54.314Z,32.60
2022-11-01T11:29:37.857Z,32.90
2022-11-01T11:32:09.254Z,31.00
2022-11-01T11:34:38.571Z,33.60
2022-11-01T11:37:07.981Z,33.90
2022-11-01T11:39:36.938Z,32.90
2022-11-01T11:42:10.979Z,35.00
2022-11-01T11:44:38.772Z,36.10
2022-11-01T11:47:18.381Z,31.80
2022-11-01T11:49:46.471Z,33.30
2022-11-01T11:52:16.277Z,32.70
2022-11-01T11:54:45.159Z,32.80
2022-11-01T11:57:19.722Z,33.70
2022-11-01T11:59:56.489Z,32.50
2022-11-01T12:02:28.771Z,33.00
2022-11-01T12:04:58.329Z,32.90
2022-11-01T12:07:28.261Z,32.70
2022-11-01T12:10:05.027Z,35.00
2022-11-01T12:12:35.048Z,35.80
2022-11-01T12:15:04.245Z,34.50
2022-11-01T12:17:33.849Z,31.60
2022-11-01T12:20:02.973Z,32.60
2022-11-01T12:22:33.426Z,31.10
2022-11-01T12:25:05.989Z,30.10
2022-11-01T12:27:36.821Z,30.70
2022-11-01T12:30:08.789Z,31.20
2022-11-01T12:32:56.275Z,28.80
2022-11-01T12:35:32.027Z,30.90
2022-11-01T12:38:10.874Z,32.50
2022-11-01T12:40:41.677Z,29.90
2022-11-01T12:43:17.855Z,31.90
2022-11-01T12:45:50.302Z,30.20
2022-11-01T12:48:42.681Z,27.60
2022-11-01T12:51:30.806Z,27.50
2022-11-01T12:54:01.182Z,27.00
2022-11-01T12:56:29.611Z,26.10
2022-11-01T12:58:58.749Z,28.80
2022-11-01T13:01:45.927Z,28.20
2022-11-01T13:04:33.573Z,26.80
2022-11-01T13:07:05.704Z,24.60
2022-11-01T13:10:03.274Z,26.80
2022-11-01T13:12:46.591Z,26.80
2022-11-01T13:15:38.010Z,27.30
2022-11-01T13:18:16.643Z,27.20
2022-11-01T13:21:05.998Z,29.40
2022-11-01T13:23:36.426Z,28.90
2022-11-01T13:26:13.548Z,29.40
2022-11-01T13:28:58.526Z,28.60
2022-11-01T13:31:26.447Z,28.80
2022-11-01T13:33:54.311Z,27.30
2022-11-01T13:36:31.827Z,29.30
2022-11-01T13:38:59.897Z,28.70
2022-11-01T13:41:34.710Z,29.80
2022-11-01T13:44:14.954Z,28.00
2022-11-01T13:46:49.117Z,33.10
2022-11-01T13:49:24.117Z,33.30
2022-11-01T13:52:01.921Z,35.50
2022-11-01T13:54:59.561Z,29.10
2022-11-01T13:57:27.832Z,29.40
2022-11-01T13:59:59.696Z,29.60
2022-11-01T14:02:27.628Z,42.70
2022-11-01T14:05:00.257Z,37.60
2022-11-01T14:07:34.424Z,31.90
2022-11-01T14:10:10.640Z,29.50
2022-11-01T14:12:46.631Z,32.00
2022-11-01T14:15:22.164Z,27.50
2022-11-01T14:17:53.322Z,30.40
2022-11-01T14:20:36.914Z,30.60
2022-11-01T14:23:23.401Z,28.20
2022-11-01T14:26:11.236Z,26.70
2022-11-01T14:28:45.430Z,32.90
2022-11-01T14:31:13.519Z,27.80
2022-11-01T14:33:41.545Z,25.70
2022-11-01T14:36:12.229Z,26.90
2022-11-01T14:39:00.572Z,23.40
2022-11-01T14:41:30.180Z,25.30
2022-11-01T14:46:39.101Z,25.60
2022-11-01T14:49:33.658Z,25.80
2022-11-01T14:52:16.344Z,27.90
2022-11-01T14:54:52.485Z,27.60
2022-11-01T14:57:33.252Z,27.30
2022-11-01T15:00:18.599Z,26.20
2022-11-01T15:02:46.397Z,25.90
2022-11-01T15:05:14.430Z,25.10
2022-11-01T15:07:42.737Z,29.90
2022-11-01T15:10:14.498Z,32.20
2022-11-01T15:12:47.824Z,29.10
2022-11-01T15:15:21.921Z,33.50
2022-11-01T15:17:51.405Z,27.60
2022-11-01T15:20:20.096Z,27.60
2022-11-01T15:22:49.397Z,27.00
2022-11-01T15:25:22.695Z,29.60
2022-11-01T15:27:50.856Z,214.00
2022-11-01T15:30:21.283Z,253.80
2022-11-01T15:32:56.214Z,111.70
2022-11-01T15:35:26.030Z,79.10
2022-11-01T15:37:54.504Z,52.90
2022-11-01T15:40:35.225Z,49.40
2022-11-01T15:43:04.189Z,43.10
2022-11-01T15:45:33.772Z,39.40
2022-11-01T15:48:24.170Z,33.20
2022-11-01T15:50:54.893Z,31.40
2022-11-01T15:53:24.858Z,26.20
2022-11-01T15:55:55.033Z,27.20
2022-11-01T15:58:29.666Z,28.20
2022-11-01T16:00:59.509Z,25.90
2022-11-01T16:03:27.335Z,25.40
2022-11-01T16:05:59.724Z,23.20
2022-11-01T16:08:31.360Z,23.10
2022-11-01T16:11:00.241Z,25.40
2022-11-01T16:13:28.631Z,22.60
2022-11-01T16:16:05.847Z,24.30
2022-11-01T16:18:34.343Z,32.60
2022-11-01T16:21:22.761Z,139.80
2022-11-01T16:23:59.262Z,111.20
2022-11-01T16:26:29.328Z,65.70
2022-11-01T16:28:58.833Z,35.60
2022-11-01T16:31:31.108Z,27.40
2022-11-01T16:33:59.285Z,25.60
2022-11-01T16:36:38.095Z,26.00
2022-11-01T16:39:29.086Z,23.10
2022-11-01T16:41:57.801Z,43.40
2022-11-01T16:44:26.175Z,27.30
2022-11-01T16:46:54.548Z,24.40
2022-11-01T16:49:23.737Z,25.90
2022-11-01T16:51:52.850Z,22.20
2022-11-01T16:54:20.708Z,20.80
2022-11-01T16:56:50.832Z,20.70
2022-11-01T16:59:33.029Z,21.60
2022-11-01T17:02:02.594Z,22.90
2022-11-01T17:04:31.327Z,26.10
2022-11-01T17:06:59.497Z,21.80
2022-11-01T17:09:28.914Z,25.40
2022-11-01T17:11:57.393Z,25.70
2022-11-01T17:14:26.604Z,24.50
2022-11-01T17:16:56.577Z,23.20
2022-11-01T17:19:26.617Z,22.30
2022-11-01T17:21:54.953Z,24.40
2022-11-01T17:24:27.073Z,22.70
2022-11-01T17:26:58.092Z,23.20
2022-11-01T17:29:26.802Z,23.50
2022-11-01T17:31:55.259Z,21.30
2022-11-01T17:34:25.514Z,21.90
2022-11-01T17:36:55.086Z,19.20
2022-11-01T17:39:23.880Z,19.20
2022-11-01T17:41:51.842Z,18.80
2022-11-01T17:44:19.609Z,17.80
2022-11-01T17:46:47.673Z,19.30
2022-11-01T17:49:16.266Z,17.40
2022-11-01T17:51:44.068Z,15.60
2022-11-01T17:54:11.867Z,17.00
2022-11-01T17:56:39.649Z,19.20
2022-11-01T17:59:09.973Z,16.00
2022-11-01T18:01:38.809Z,17.40
2022-11-01T18:04:06.839Z,17.70
2022-11-01T18:06:34.698Z,17.90
2022-11-01T18:09:05.634Z,15.60
2022-11-01T18:11:53.725Z,19.20
2022-11-01T18:14:31.171Z,20.10
2022-11-01T18:17:05.146Z,24.50
2022-11-01T18:19:52.503Z,19.90
2022-11-01T18:22:24.059Z,17.20
2022-11-01T18:24:57.659Z,16.10
2022-11-01T18:27:32.594Z,14.70
2022-11-01T18:30:01.583Z,18.00
2022-11-01T18:32:36.831Z,20.60
2022-11-01T18:35:17.802Z,29.40
2022-11-01T18:38:06.027Z,22.70
2022-11-01T18:40:39.940Z,24.60
2022-11-01T18:43:08.073Z,21.80
2022-11-01T18:45:52.800Z,23.40
2022-11-01T18:48:27.937Z,19.20
2022-11-01T18:51:06.043Z,24.40
2022-11-01T18:53:35.119Z,45.60
2022-11-01T18:56:16.465Z,36.70
2022-11-01T18:58:44.667Z,27.00
2022-11-01T19:01:20.131Z,17.30
2022-11-01T19:03:57.206Z,18.70
2022-11-01T19:06:26.292Z,18.70
2022-11-01T19:09:03.427Z,28.30
2022-11-01T19:11:34.268Z,26.20
2022-11-01T19:14:03.510Z,19.40
2022-11-01T19:16:31.683Z,18.50
2022-11-01T19:19:01.528Z,18.00
2022-11-01T19:21:35.925Z,18.30
2022-11-01T19:24:16.915Z,20.50
2022-11-01T19:26:45.370Z,19.00
2022-11-01T19:29:19.097Z,20.50
2022-11-01T19:31:50.629Z,23.40
2022-11-01T19:34:26.295Z,19.50
2022-11-01T19:36:55.678Z,20.00
2022-11-01T19:39:25.573Z,22.00
2022-11-01T19:42:00.177Z,23.50
2022-11-01T19:44:30.960Z,20.40
2022-11-01T19:47:20.247Z,22.90
2022-11-01T19:49:50.857Z,15.90
2022-11-01T19:52:30.077Z,13.70
2022-11-01T19:54:59.258Z,14.00
2022-11-01T19:57:33.724Z,13.70
2022-11-01T20:00:12.941Z,17.80
2022-11-01T20:02:43.554Z,19.80
2022-11-01T20:05:30.378Z,28.40
2022-11-01T20:08:15.215Z,29.50
2022-11-01T20:10:45.012Z,25.60
2022-11-01T20:13:14.140Z,22.70
2022-11-01T20:15:42.408Z,21.40
2022-11-01T20:18:11.409Z,19.60
2022-11-01T20:20:44.882Z,28.50
2022-11-01T20:23:25.949Z,25.50
2022-11-01T20:25:55.584Z,21.90
2022-11-01T20:28:24.883Z,18.60
2022-11-01T20:30:53.892Z,22.70
2022-11-01T20:33:24.131Z,17.60
2022-11-01T20:35:54.252Z,14.80
2022-11-01T20:38:22.808Z,17.30
2022-11-01T20:40:51.744Z,18.10
2022-11-01T20:43:20.168Z,15.60
2022-11-01T20:45:50.433Z,15.40
2022-11-01T20:48:19.725Z,16.00
2022-11-01T20:50:47.658Z,15.00
2022-11-01T20:53:16.807Z,15.80
2022-11-01T20:55:45.745Z,15.00
2022-11-01T20:58:14.439Z,16.60
2022-11-01T21:00:42.299Z,15.40
2022-11-01T21:03:16.306Z,18.90
2022-11-01T21:05:45.936Z,16.20
2022-11-01T21:08:24.325Z,17.50
2022-11-01T21:11:01.092Z,17.40
2022-11-01T21:13:36.547Z,20.00
2022-11-01T21:16:12.424Z,18.00
2022-11-01T21:18:43.960Z,16.50
2022-11-01T21:21:12.458Z,22.40
2022-11-01T21:23:41.463Z,21.10
2022-11-01T21:26:09.838Z,27.70
2022-11-01T21:28:42.297Z,30.90
2022-11-01T21:31:10.355Z,28.80
2022-11-01T21:33:39.585Z,33.00
2022-11-01T21:36:13.148Z,27.30
2022-11-01T21:38:41.553Z,25.10
2022-11-01T21:41:24.680Z,19.50
2022-11-01T21:43:52.567Z,20.00
2022-11-01T21:46:21.917Z,17.60
2022-11-01T21:48:54.202Z,22.40
2022-11-01T21:51:25.010Z,18.60
2022-11-01T21:53:53.763Z,19.50
2022-11-01T21:56:21.576Z,25.00
2022-11-01T21:58:49.436Z,18.30
2022-11-01T22:01:17.567Z,21.80
2022-11-01T22:03:45.791Z,19.60
2022-11-01T22:06:13.651Z,20.60
2022-11-01T22:08:41.623Z,21.20
2022-11-01T22:11:10.327Z,22.50
2022-11-01T22:13:38.699Z,21.40
2022-11-01T22:16:08.774Z,19.50
2022-11-01T22:18:36.764Z,19.80
2022-11-01T22:21:04.428Z,21.50
2022-11-01T22:23:32.176Z,19.40
2022-11-01T22:25:59.838Z,19.40
2022-11-01T22:28:27.683Z,21.70
2022-11-01T22:30:55.482Z,18.70
2022-11-01T22:33:23.450Z,20.60
2022-11-01T22:35:51.226Z,18.40
2022-11-01T22:38:21.247Z,20.60
2022-11-01T22:40:59.746Z,20.60
2022-11-01T22:43:27.453Z,21.60
2022-11-01T22:45:55.273Z,19.40
2022-11-01T22:48:23.572Z,20.50
2022-11-01T22:50:51.326Z,19.80
2022-11-01T22:53:21.327Z,21.50
2022-11-01T22:55:50.630Z,20.60
2022-11-01T22:58:25.252Z,19.60
2022-11-01T23:00:53.320Z,22.10
2022-11-01T23:03:21.190Z,20.70
2022-11-01T23:05:53.869Z,20.20
2022-11-01T23:08:33.615Z,20.50
2022-11-01T23:11:01.991Z,19.60
2022-11-01T23:13:57.709Z,22.20
2022-11-01T23:16:37.044Z,21.90
2022-11-01T23:19:08.175Z,21.20
2022-11-01T23:21:35.849Z,18.50
2022-11-01T23:24:04.161Z,20.30
2022-11-01T23:26:32.313Z,20.20
2022-11-01T23:29:00.706Z,19.20
2022-11-01T23:31:29.263Z,20.30
2022-11-01T23:33:57.450Z,20.90
2022-11-01T23:36:30.457Z,19.50
2022-11-01T23:39:06.854Z,21.80
2022-11-01T23:41:38.006Z,21.30
2022-11-01T23:44:23.917Z,22.30
2022-11-01T23:46:53.113Z,20.40
2022-11-01T23:49:23.256Z,22.40
2022-11-01T23:51:53.563Z,19.50
2022-11-01T23:54:27.416Z,21.00
2022-11-01T23:56:55.844Z,18.10
2022-11-01T23:59:23.402Z,21.40
